Holt, Missouri
Current Conditions -  °F | °C
As of 5:15 PM on Thursday 23 Oct 2014 (Local Time) from KGPH Reporting Station
Broken Clouds Broken Clouds  
Wind Chill: 64°   Ceiling: 2000
Heat Index: 64°   Visibility: 7mi
Dew Point: 61°   Wind: 3mph
Humidity: 88%   Direction: 220°SW
Pressure: 30.05"   Gusts: NA
Location:  39.45°N, 94.34°W
Report Text: KGPH 232215Z AUTO 22003KT 7SM SCT012 BKN020 BKN035 18/16 A3005 RMK AO2
Loading
Personal Weather Stations






























Interactive Weather Map New forecast layout! Learn more

10-Day Weather Forecast

Advertisements
Track Severe Weather on mobile